createdAt,value
2022-08-20T00:00:36.335Z,5.03
2022-08-20T00:03:07.917Z,10.13
2022-08-20T00:05:42.865Z,6.80
2022-08-20T00:08:10.634Z,6.90
2022-08-20T00:10:40.886Z,10.60
2022-08-20T00:13:11.055Z,7.60
2022-08-20T00:15:42.261Z,10.40
2022-08-20T00:18:09.363Z,8.80
2022-08-20T00:20:44.010Z,10.10
2022-08-20T00:23:11.014Z,6.30
2022-08-20T00:25:38.415Z,5.23
2022-08-20T00:28:07.074Z,6.23
2022-08-20T00:30:36.449Z,6.37
2022-08-20T00:33:07.278Z,3.43
2022-08-20T00:35:36.917Z,12.80
2022-08-20T00:38:04.986Z,5.37
2022-08-20T00:40:37.464Z,7.37
2022-08-20T00:43:07.814Z,14.50
2022-08-20T00:45:36.344Z,6.20
2022-08-20T00:48:04.202Z,5.07
2022-08-20T00:50:37.197Z,4.60
2022-08-20T00:53:08.490Z,11.77
2022-08-20T00:55:36.945Z,3.80
2022-08-20T00:58:09.014Z,6.10
2022-08-20T01:00:42.851Z,6.53
2022-08-20T01:03:14.961Z,7.97
2022-08-20T01:05:47.997Z,4.93
2022-08-20T01:08:17.254Z,6.77
2022-08-20T01:10:48.814Z,10.23
2022-08-20T01:13:22.127Z,5.60
2022-08-20T01:15:51.676Z,4.77
2022-08-20T01:18:24.517Z,10.33
2022-08-20T01:21:01.018Z,4.40
2022-08-20T01:23:48.826Z,10.10
2022-08-20T01:26:23.844Z,5.60
2022-08-20T01:29:02.032Z,7.33
2022-08-20T01:31:32.941Z,4.67
2022-08-20T01:34:01.349Z,8.30
2022-08-20T01:36:45.970Z,4.50
2022-08-20T01:39:16.222Z,8.40
2022-08-20T01:41:59.806Z,6.50
2022-08-20T01:44:27.479Z,5.17
2022-08-20T01:46:57.593Z,6.30
2022-08-20T01:49:31.497Z,5.20
2022-08-20T01:52:01.934Z,7.90
2022-08-20T01:54:28.754Z,4.30
2022-08-20T01:56:57.752Z,4.43
2022-08-20T01:59:25.065Z,3.00
2022-08-20T02:01:53.019Z,11.40
2022-08-20T02:04:20.823Z,13.33
2022-08-20T02:06:56.628Z,5.03
2022-08-20T02:09:33.126Z,4.37
2022-08-20T02:12:00.909Z,5.03
2022-08-20T02:14:28.867Z,4.53
2022-08-20T02:16:58.653Z,5.67
2022-08-20T02:19:48.334Z,4.67
2022-08-20T02:22:24.270Z,9.83
2022-08-20T02:24:51.848Z,7.33
2022-08-20T02:27:19.143Z,4.73
2022-08-20T02:29:46.826Z,4.80
2022-08-20T02:32:25.030Z,5.30
2022-08-20T02:35:02.980Z,10.13
2022-08-20T02:37:29.886Z,11.40
2022-08-20T02:39:56.748Z,6.97
2022-08-20T02:42:23.884Z,6.43
2022-08-20T02:44:50.707Z,6.10
2022-08-20T02:47:17.540Z,3.73
2022-08-20T02:49:44.595Z,4.90
2022-08-20T02:52:11.542Z,4.57
2022-08-20T02:54:38.405Z,7.70
2022-08-20T02:57:05.697Z,8.17
2022-08-20T02:59:33.611Z,9.10
2022-08-20T03:02:01.341Z,10.40
2022-08-20T03:04:31.255Z,14.50
2022-08-20T03:06:59.455Z,5.23
2022-08-20T03:09:26.368Z,4.83
2022-08-20T03:11:54.398Z,4.53
2022-08-20T03:14:21.302Z,2.80
2022-08-20T03:16:48.139Z,9.00
2022-08-20T03:19:15.028Z,6.90
2022-08-20T03:21:42.186Z,11.13
2022-08-20T03:24:09.480Z,4.37
2022-08-20T03:26:37.230Z,6.80
2022-08-20T03:29:04.691Z,3.20
2022-08-20T03:31:31.582Z,5.20
2022-08-20T03:33:58.394Z,2.70
2022-08-20T03:36:28.102Z,7.30
2022-08-20T03:38:57.962Z,5.20
2022-08-20T03:41:25.144Z,2.00
2022-08-20T03:43:53.182Z,3.50
2022-08-20T03:46:23.160Z,13.60
2022-08-20T03:48:56.657Z,4.60
2022-08-20T03:51:30.886Z,3.43
2022-08-20T03:53:58.058Z,5.03
2022-08-20T03:56:25.477Z,10.40
2022-08-20T03:58:52.925Z,12.40
2022-08-20T04:01:44.228Z,6.07
2022-08-20T04:04:06.609Z,5.90
2022-08-20T04:06:40.059Z,3.30
2022-08-20T04:09:09.439Z,6.00
2022-08-20T04:11:37.614Z,3.93
2022-08-20T04:14:04.802Z,4.57
2022-08-20T04:16:33.462Z,7.00
2022-08-20T04:19:02.446Z,5.13
2022-08-20T04:21:34.233Z,4.10
2022-08-20T04:24:03.311Z,2.87
2022-08-20T04:26:31.719Z,3.17
2022-08-20T04:28:58.575Z,5.30
2022-08-20T04:31:25.721Z,6.53
2022-08-20T04:33:52.699Z,9.50
2022-08-20T04:36:19.542Z,4.90
2022-08-20T04:38:49.421Z,4.90
2022-08-20T04:41:23.011Z,6.00
2022-08-20T04:43:51.993Z,4.57
2022-08-20T04:46:19.475Z,10.33
2022-08-20T04:48:48.997Z,4.77
2022-08-20T04:51:18.337Z,4.23
2022-08-20T04:53:52.136Z,6.33
2022-08-20T04:56:23.888Z,7.50
2022-08-20T04:58:52.476Z,9.30
2022-08-20T05:01:19.653Z,8.93
2022-08-20T05:03:49.417Z,3.20
2022-08-20T05:06:17.701Z,7.53
2022-08-20T05:08:44.814Z,7.40
2022-08-20T05:11:34.539Z,6.27
2022-08-20T05:13:58.775Z,4.70
2022-08-20T05:16:25.846Z,2.83
2022-08-20T05:18:53.137Z,10.40
2022-08-20T05:21:20.853Z,9.17
2022-08-20T05:23:49.297Z,8.47
2022-08-20T05:26:20.144Z,9.87
2022-08-20T05:28:58.159Z,3.67
2022-08-20T05:31:32.025Z,5.07
2022-08-20T05:34:01.299Z,8.20
2022-08-20T05:36:28.246Z,8.63
2022-08-20T05:38:55.052Z,4.53
2022-08-20T05:41:29.455Z,2.97
2022-08-20T05:44:01.283Z,3.87
2022-08-20T05:46:31.129Z,12.17
2022-08-20T05:49:00.043Z,13.23
2022-08-20T05:51:28.310Z,14.20
2022-08-20T05:53:59.222Z,7.63
2022-08-20T05:56:30.475Z,8.10
2022-08-20T05:58:59.521Z,4.43
2022-08-20T06:01:26.386Z,2.67
2022-08-20T06:04:12.022Z,2.87
2022-08-20T06:06:45.509Z,3.37
2022-08-20T06:09:31.185Z,3.10
2022-08-20T06:12:06.068Z,3.57
2022-08-20T06:14:33.539Z,3.30
2022-08-20T06:17:07.566Z,4.10
2022-08-20T06:19:36.059Z,3.97
2022-08-20T06:22:17.732Z,8.70
2022-08-20T06:24:50.268Z,2.70
2022-08-20T06:27:17.449Z,6.33
2022-08-20T06:29:44.330Z,4.43
2022-08-20T06:32:11.737Z,5.10
2022-08-20T06:34:50.310Z,5.97
2022-08-20T06:37:31.324Z,5.07
2022-08-20T06:40:14.094Z,3.50
2022-08-20T06:42:48.049Z,10.00
2022-08-20T06:45:18.570Z,6.13
2022-08-20T06:47:47.019Z,3.60
2022-08-20T06:50:19.490Z,6.53
2022-08-20T06:52:52.892Z,4.67
2022-08-20T06:55:21.237Z,8.37
2022-08-20T06:57:55.690Z,3.73
2022-08-20T07:00:22.522Z,12.40
2022-08-20T07:02:49.436Z,10.73
2022-08-20T07:05:16.825Z,6.57
2022-08-20T07:07:49.628Z,2.83
2022-08-20T07:10:17.963Z,2.37
2022-08-20T07:12:46.908Z,7.97
2022-08-20T07:15:15.192Z,8.80
2022-08-20T07:17:42.090Z,5.80
2022-08-20T07:20:15.211Z,7.27
2022-08-20T07:22:43.433Z,3.73
2022-08-20T07:25:14.351Z,11.23
2022-08-20T07:27:42.086Z,6.23
2022-08-20T07:30:31.452Z,4.07
2022-08-20T07:32:58.676Z,3.80
2022-08-20T07:35:27.326Z,4.97
2022-08-20T07:37:54.937Z,5.70
2022-08-20T07:40:30.025Z,2.67
2022-08-20T07:42:58.742Z,2.80
2022-08-20T07:45:25.853Z,1.70
2022-08-20T07:47:55.995Z,6.10
2022-08-20T07:50:25.326Z,2.93
2022-08-20T07:52:53.069Z,4.20
2022-08-20T07:55:21.223Z,7.10
2022-08-20T07:57:50.203Z,2.00
2022-08-20T08:00:22.524Z,0.80
2022-08-20T08:02:49.481Z,0.60
2022-08-20T08:05:18.346Z,0.40
2022-08-20T08:07:46.407Z,0.57
2022-08-20T08:10:22.060Z,0.50
2022-08-20T08:12:53.245Z,0.57
2022-08-20T08:15:28.842Z,2.40
2022-08-20T08:18:07.879Z,0.50
2022-08-20T08:20:46.784Z,0.50
2022-08-20T08:23:31.651Z,0.50
2022-08-20T08:25:59.790Z,0.87
2022-08-20T08:28:29.620Z,0.60
2022-08-20T08:30:57.078Z,0.50
2022-08-20T08:33:27.787Z,3.27
2022-08-20T08:35:56.042Z,0.50
2022-08-20T08:38:24.138Z,0.50
2022-08-20T08:40:59.166Z,1.23
2022-08-20T08:43:31.857Z,0.50
2022-08-20T08:46:05.787Z,0.70
2022-08-20T08:48:43.458Z,0.50
2022-08-20T08:51:13.431Z,0.50
2022-08-20T08:53:46.155Z,0.50
2022-08-20T08:56:15.068Z,0.50
2022-08-20T08:58:44.605Z,0.50
2022-08-20T09:01:55.696Z,0.40
2022-08-20T09:04:03.139Z,0.47
2022-08-20T09:06:30.947Z,2.00
2022-08-20T09:09:02.957Z,0.50
2022-08-20T09:11:30.899Z,0.60
2022-08-20T09:13:58.580Z,0.60
2022-08-20T09:16:26.065Z,0.60
2022-08-20T09:18:56.849Z,0.40
2022-08-20T09:21:23.657Z,0.40
2022-08-20T09:23:50.571Z,0.50
2022-08-20T09:26:17.413Z,3.47
2022-08-20T09:28:44.225Z,0.77
2022-08-20T09:31:18.396Z,1.37
2022-08-20T09:33:45.203Z,0.97
2022-08-20T09:36:31.884Z,6.50
2022-08-20T09:38:58.907Z,6.63
2022-08-20T09:41:25.749Z,0.53
2022-08-20T09:43:52.589Z,0.50
2022-08-20T09:46:19.425Z,0.67
2022-08-20T09:48:53.734Z,0.50
2022-08-20T09:51:20.551Z,0.50
2022-08-20T09:53:48.880Z,1.63
2022-08-20T09:56:16.156Z,0.40
2022-08-20T09:58:53.369Z,0.90
2022-08-20T10:01:22.488Z,0.40
2022-08-20T10:03:50.476Z,0.50
2022-08-20T10:06:20.082Z,0.40
2022-08-20T10:08:47.706Z,0.40
2022-08-20T10:11:14.698Z,0.50
2022-08-20T10:13:41.642Z,0.83
2022-08-20T10:16:08.490Z,0.60
2022-08-20T10:18:36.448Z,0.80
2022-08-20T10:21:03.490Z,0.50
2022-08-20T10:23:30.350Z,0.50
2022-08-20T10:25:57.157Z,4.53
2022-08-20T10:28:23.981Z,2.03
2022-08-20T10:30:50.821Z,1.67
2022-08-20T10:33:17.614Z,0.50
2022-08-20T10:35:44.415Z,0.70
2022-08-20T10:38:11.235Z,3.33
2022-08-20T10:40:38.074Z,0.60
2022-08-20T10:43:05.138Z,0.50
2022-08-20T10:45:31.961Z,0.50
2022-08-20T10:48:02.030Z,5.73
2022-08-20T10:50:30.181Z,1.73
2022-08-20T10:52:57.463Z,0.70
2022-08-20T10:55:24.287Z,0.50
2022-08-20T10:57:51.109Z,0.50
2022-08-20T11:00:19.050Z,1.53
2022-08-20T11:02:46.126Z,0.50
2022-08-20T11:05:13.058Z,0.67
2022-08-20T11:07:59.842Z,0.97
2022-08-20T11:10:29.319Z,0.50
2022-08-20T11:12:56.517Z,0.50
2022-08-20T11:15:23.647Z,1.00
2022-08-20T11:17:50.849Z,1.33
2022-08-20T11:20:20.016Z,1.57
2022-08-20T11:22:47.273Z,0.60
2022-08-20T11:25:14.723Z,0.60
2022-08-20T11:27:46.309Z,1.80
2022-08-20T11:30:21.703Z,0.50
2022-08-20T11:32:48.508Z,0.50
2022-08-20T11:35:41.228Z,0.40
2022-08-20T11:38:02.909Z,1.07
2022-08-20T11:40:31.502Z,0.40
2022-08-20T11:43:14.311Z,0.50
2022-08-20T11:45:42.750Z,1.37
2022-08-20T11:48:09.673Z,0.80
2022-08-20T11:50:36.509Z,0.60
2022-08-20T11:53:03.318Z,0.50
2022-08-20T11:55:31.126Z,0.50
2022-08-20T11:57:59.826Z,0.70
2022-08-20T12:00:33.127Z,0.50
2022-08-20T12:03:01.792Z,0.50
2022-08-20T12:05:30.200Z,0.50
2022-08-20T12:08:00.112Z,0.80
2022-08-20T12:10:28.146Z,0.90
2022-08-20T12:12:55.920Z,1.03
2022-08-20T12:15:24.257Z,0.50
2022-08-20T12:17:51.253Z,0.70
2022-08-20T12:20:18.238Z,0.57
2022-08-20T12:22:45.128Z,0.60
2022-08-20T12:25:13.200Z,1.13
2022-08-20T12:27:40.441Z,0.63
2022-08-20T12:30:20.126Z,0.60
2022-08-20T12:32:47.349Z,0.80
2022-08-20T12:35:15.889Z,0.50
2022-08-20T12:37:43.922Z,0.60
2022-08-20T12:40:14.906Z,0.60
2022-08-20T12:42:42.315Z,2.00
2022-08-20T12:45:09.992Z,0.50
2022-08-20T12:47:39.441Z,0.50
2022-08-20T12:50:18.293Z,0.67
2022-08-20T12:52:45.894Z,0.53
2022-08-20T12:55:15.766Z,2.50
2022-08-20T12:57:49.830Z,0.50
2022-08-20T13:00:20.801Z,0.70
2022-08-20T13:02:49.023Z,0.60
2022-08-20T13:05:17.017Z,0.50
2022-08-20T13:07:45.064Z,0.93
2022-08-20T13:10:17.918Z,0.60
2022-08-20T13:12:44.736Z,0.50
2022-08-20T13:15:11.859Z,0.50
2022-08-20T13:17:39.682Z,0.50
2022-08-20T13:20:12.798Z,0.97
2022-08-20T13:22:41.602Z,0.73
2022-08-20T13:25:09.434Z,0.50
2022-08-20T13:27:39.411Z,0.50
2022-08-20T13:30:08.044Z,0.50
2022-08-20T13:32:34.935Z,0.50
2022-08-20T13:35:01.789Z,0.50
2022-08-20T13:37:29.669Z,0.50
2022-08-20T13:39:57.752Z,0.50
2022-08-20T13:42:25.238Z,0.50
2022-08-20T13:44:52.490Z,0.50
2022-08-20T13:47:32.404Z,0.60
2022-08-20T13:50:05.373Z,0.50
2022-08-20T13:52:32.949Z,0.53
2022-08-20T13:55:03.060Z,0.50
2022-08-20T13:57:33.820Z,0.50
2022-08-20T14:00:00.913Z,0.50
2022-08-20T14:02:28.279Z,0.50
2022-08-20T14:04:55.334Z,0.50
2022-08-20T14:07:30.194Z,0.50
2022-08-20T14:10:02.367Z,0.97
2022-08-20T14:12:30.597Z,0.53
2022-08-20T14:14:58.171Z,0.63
2022-08-20T14:17:29.835Z,0.50
2022-08-20T14:20:01.711Z,0.50
2022-08-20T14:22:29.431Z,0.50
2022-08-20T14:24:56.722Z,0.80
2022-08-20T14:27:27.733Z,0.60
2022-08-20T14:29:56.100Z,0.60
2022-08-20T14:32:23.036Z,0.60
2022-08-20T14:34:49.928Z,0.50
2022-08-20T14:37:19.566Z,0.50
2022-08-20T14:39:49.998Z,0.60
2022-08-20T14:42:17.023Z,1.13
2022-08-20T14:44:44.474Z,0.80
2022-08-20T14:47:29.857Z,0.50
2022-08-20T14:50:02.242Z,0.90
2022-08-20T14:52:29.967Z,0.60
2022-08-20T14:54:57.266Z,0.60
2022-08-20T14:57:24.330Z,2.00
2022-08-20T14:59:53.118Z,0.50
2022-08-20T15:02:20.307Z,0.50
2022-08-20T15:04:52.252Z,1.23
2022-08-20T15:07:31.103Z,0.50
2022-08-20T15:10:00.535Z,0.50
2022-08-20T15:12:28.372Z,0.40
2022-08-20T15:14:55.278Z,0.50
2022-08-20T15:17:25.420Z,0.50
2022-08-20T15:19:53.189Z,1.13
2022-08-20T15:22:21.523Z,1.27
2022-08-20T15:24:49.166Z,1.13
2022-08-20T15:27:22.859Z,0.90
2022-08-20T15:29:51.049Z,0.67
2022-08-20T15:32:18.748Z,0.60
2022-08-20T15:34:46.211Z,0.50
2022-08-20T15:37:19.485Z,0.60
2022-08-20T15:39:47.453Z,2.10
2022-08-20T15:42:15.140Z,0.50
2022-08-20T15:44:43.603Z,0.40
2022-08-20T15:47:16.570Z,0.90
2022-08-20T15:49:44.588Z,0.50
2022-08-20T15:52:12.089Z,0.60
2022-08-20T15:54:39.770Z,0.73
2022-08-20T15:57:14.267Z,0.50
2022-08-20T16:00:06.847Z,0.40
2022-08-20T16:02:58.723Z,2.30
2022-08-20T16:05:42.599Z,0.47
2022-08-20T16:08:22.006Z,0.80
2022-08-20T16:10:51.634Z,0.50
2022-08-20T16:13:38.113Z,1.17
2022-08-20T16:16:14.164Z,0.50
2022-08-20T16:18:41.344Z,0.70
2022-08-20T16:21:15.266Z,0.83
2022-08-20T16:23:43.866Z,0.50
2022-08-20T16:26:25.875Z,2.20
2022-08-20T16:29:11.338Z,0.50
2022-08-20T16:31:48.818Z,0.60
2022-08-20T16:34:41.772Z,0.50
2022-08-20T16:37:17.808Z,0.70
2022-08-20T16:40:08.907Z,1.70
2022-08-20T16:42:41.611Z,0.60
2022-08-20T16:45:14.179Z,0.60
2022-08-20T16:47:41.281Z,0.50
2022-08-20T16:50:23.928Z,0.50
2022-08-20T16:52:54.175Z,0.60
2022-08-20T16:55:23.530Z,0.80
2022-08-20T16:57:52.860Z,2.17
2022-08-20T17:00:35.093Z,0.60
2022-08-20T17:03:09.542Z,1.77
2022-08-20T17:05:47.252Z,0.50
2022-08-20T17:08:33.636Z,0.50
2022-08-20T17:11:21.890Z,0.50
2022-08-20T17:13:49.127Z,0.40
2022-08-20T17:16:15.975Z,0.70
2022-08-20T17:18:54.126Z,0.77
2022-08-20T17:21:30.385Z,1.27
2022-08-20T17:24:01.166Z,0.40
2022-08-20T17:26:32.911Z,0.50
2022-08-20T17:29:10.594Z,0.77
2022-08-20T17:31:41.823Z,0.60
2022-08-20T17:34:43.346Z,0.50
2022-08-20T17:37:21.270Z,0.50
2022-08-20T17:39:51.676Z,0.40
2022-08-20T17:42:25.540Z,0.40
2022-08-20T17:45:08.082Z,0.50
2022-08-20T17:47:37.767Z,0.40
2022-08-20T17:50:17.287Z,0.57
2022-08-20T17:52:49.875Z,1.90
2022-08-20T17:55:18.674Z,0.40
2022-08-20T17:57:54.453Z,0.50
2022-08-20T18:00:25.494Z,0.50
2022-08-20T18:03:04.983Z,0.50
2022-08-20T18:05:36.193Z,0.50
2022-08-20T18:08:49.745Z,0.40
2022-08-20T18:11:44.688Z,0.50
2022-08-20T18:14:24.110Z,1.33
2022-08-20T18:17:17.825Z,0.90
2022-08-20T18:20:16.931Z,0.50
2022-08-20T18:23:06.383Z,0.50
2022-08-20T18:25:38.719Z,0.60
2022-08-20T18:28:14.450Z,0.50
2022-08-20T18:30:57.251Z,0.60
2022-08-20T18:33:32.068Z,1.40
2022-08-20T18:36:20.657Z,0.57
2022-08-20T18:39:10.347Z,0.50
2022-08-20T18:41:54.691Z,0.50
2022-08-20T18:44:44.567Z,0.70
2022-08-20T18:47:23.263Z,0.70
2022-08-20T18:50:06.469Z,0.60
2022-08-20T18:52:50.078Z,0.63
2022-08-20T18:55:36.968Z,0.57
2022-08-20T18:58:07.530Z,0.70
2022-08-20T19:00:49.676Z,0.60
2022-08-20T19:03:31.345Z,0.70
2022-08-20T19:06:13.572Z,1.83
2022-08-20T19:09:01.207Z,0.70
2022-08-20T19:12:06.983Z,1.17
2022-08-20T19:14:58.238Z,0.80
2022-08-20T19:18:05.622Z,1.00
2022-08-20T19:20:35.671Z,0.70
2022-08-20T19:23:14.324Z,1.00
2022-08-20T19:26:04.254Z,0.87
2022-08-20T19:28:35.954Z,0.60
2022-08-20T19:31:10.340Z,0.70
2022-08-20T19:33:44.481Z,0.80
2022-08-20T19:36:27.603Z,0.53
2022-08-20T19:38:59.088Z,0.80
2022-08-20T19:41:50.811Z,0.60
2022-08-20T19:44:39.811Z,0.60
2022-08-20T19:47:17.942Z,0.53
2022-08-20T19:49:53.027Z,0.70
2022-08-20T19:52:28.723Z,0.50
2022-08-20T19:55:01.454Z,0.60
2022-08-20T19:57:30.811Z,0.50
2022-08-20T20:00:07.922Z,0.60
2022-08-20T20:02:35.033Z,0.60
2022-08-20T20:05:09.402Z,0.60
2022-08-20T20:07:36.322Z,0.60
2022-08-20T20:10:06.203Z,0.70
2022-08-20T20:12:34.539Z,0.50
2022-08-20T20:15:02.889Z,0.67
2022-08-20T20:17:34.673Z,0.70
2022-08-20T20:20:24.131Z,0.60
2022-08-20T20:23:00.974Z,0.57
2022-08-20T20:25:33.822Z,0.60
2022-08-20T20:28:19.481Z,0.80
2022-08-20T20:30:47.366Z,0.50
2022-08-20T20:33:23.867Z,0.60
2022-08-20T20:36:06.578Z,0.60
2022-08-20T20:38:34.467Z,0.53
2022-08-20T20:41:04.127Z,0.50
2022-08-20T20:43:37.558Z,0.50
2022-08-20T20:46:19.922Z,0.67
2022-08-20T20:48:51.210Z,2.40
2022-08-20T20:51:33.823Z,1.37
2022-08-20T20:54:04.562Z,0.60
2022-08-20T20:56:41.255Z,0.60
2022-08-20T20:59:10.553Z,0.70
2022-08-20T21:01:49.087Z,1.90
2022-08-20T21:04:22.720Z,0.80
2022-08-20T21:06:54.550Z,2.00
2022-08-20T21:09:22.856Z,0.60
2022-08-20T21:11:50.086Z,0.60
2022-08-20T21:14:17.535Z,0.60
2022-08-20T21:16:45.353Z,0.67
2022-08-20T21:19:13.211Z,0.90
2022-08-20T21:21:41.194Z,0.60
2022-08-20T21:24:08.639Z,0.60
2022-08-20T21:26:36.455Z,0.60
2022-08-20T21:29:05.311Z,0.70
2022-08-20T21:31:35.983Z,0.60
2022-08-20T21:34:03.333Z,0.50
2022-08-20T21:36:30.231Z,0.70
2022-08-20T21:38:57.402Z,1.00
2022-08-20T21:41:25.130Z,0.73
2022-08-20T21:43:57.955Z,0.60
2022-08-20T21:46:26.016Z,0.50
2022-08-20T21:48:52.898Z,0.60
2022-08-20T21:51:19.790Z,0.60
2022-08-20T21:53:46.971Z,0.60
2022-08-20T21:56:13.831Z,0.77
2022-08-20T21:58:40.806Z,2.50
2022-08-20T22:01:14.942Z,0.60
2022-08-20T22:03:42.932Z,0.50
2022-08-20T22:06:12.839Z,0.60
2022-08-20T22:08:39.808Z,0.70
2022-08-20T22:11:09.429Z,0.70
2022-08-20T22:13:37.184Z,0.93
2022-08-20T22:16:07.853Z,0.70
2022-08-20T22:18:35.810Z,0.50
2022-08-20T22:21:03.510Z,0.60
2022-08-20T22:23:30.429Z,0.60
2022-08-20T22:25:57.339Z,0.70
2022-08-20T22:28:24.570Z,0.70
2022-08-20T22:30:51.486Z,0.70
2022-08-20T22:33:23.159Z,0.70
2022-08-20T22:35:52.519Z,0.70
2022-08-20T22:38:20.184Z,0.77
2022-08-20T22:40:47.244Z,0.77
2022-08-20T22:43:14.775Z,0.70
2022-08-20T22:45:45.665Z,1.93
2022-08-20T22:48:15.834Z,0.77
2022-08-20T22:50:43.195Z,0.70
2022-08-20T22:53:11.155Z,0.70
2022-08-20T22:55:38.614Z,0.80
2022-08-20T22:58:06.503Z,0.70
2022-08-20T23:00:34.361Z,0.93
2022-08-20T23:03:02.257Z,0.63
2022-08-20T23:05:33.012Z,0.80
2022-08-20T23:08:00.878Z,0.90
2022-08-20T23:10:30.458Z,1.43
2022-08-20T23:12:57.605Z,1.00
2022-08-20T23:15:28.977Z,0.70
2022-08-20T23:18:01.068Z,0.50
2022-08-20T23:20:27.991Z,0.70
2022-08-20T23:22:55.760Z,0.60
2022-08-20T23:25:23.111Z,0.70
2022-08-20T23:27:55.276Z,0.70
2022-08-20T23:30:23.615Z,0.60
2022-08-20T23:32:51.148Z,0.60
2022-08-20T23:35:18.636Z,0.60
2022-08-20T23:37:52.649Z,0.70
2022-08-20T23:40:28.106Z,0.57
2022-08-20T23:42:56.461Z,0.60
2022-08-20T23:45:23.727Z,0.70
2022-08-20T23:47:50.911Z,0.80
2022-08-20T23:50:21.073Z,0.77
2022-08-20T23:52:51.295Z,0.70
2022-08-20T23:55:18.811Z,3.20
2022-08-20T23:57:45.721Z,0.70
